KHIE/HIE METAR and TAF weather

Enter ICAO airport designator
Station Type Date Time Source
KHIE METAR 2019/08/22 04:52 UTC NOAA

KHIE 220452Z AUTO 00000KT 10SM BKN006 OVC018 19/18 A2983 RMK AO2 CIG 006V010 SLP097 T01890178 402220083 TSNO


Station Type Date Time Source
KHIE Decoded METAR 2019/08/22 04:52 UTC NOAA

Station name not available
Aug 22, 2019 - 12:52 AM EDT / 2019.08.22 0452 UTC
Wind: Calm:0
Visibility: 10 mile(s):0
Sky conditions: overcast
Temperature: 66.0 F (18.9 C)
Dew Point: 64.0 F (17.8 C)
Relative Humidity: 93%
Pressure (altimeter): 29.83 in. Hg (1010 hPa)
ob: KHIE 220452Z AUTO 00000KT 10SM BKN006 OVC018 19/18 A2983 RMK AO2 CIG 006V010 SLP097 T01890178 402220083 TSNO
cycle: 5

Station Type Date Time Source
KHIE TAF 2019/08/22 04:09 UTC NOAA

TAF
AMD KHIE 220405Z 2204/2224 00000KT 6SM BR OVC007
FM220600 00000KT 1/4SM FG VV001
FM221200 25005KT P6SM OVC015
FM221400 27008G14KT P6SM -SHRA VCTS BKN040CB

Example: see airport list